Time;durP1;ratioP1;P1;durP2;ratioP2;P2;SDS_P1;SDS_P2;PMS_P1;PMS_P2;Temp;Humidity;BMP_temperature;BMP_pressure;BME280_temperature;BME280_humidity;BME280_pressure;Samples;Min_cycle;Max_cycle;Signal;HPM_P1;HPM_P2
2021/05/27 00:00:10;;;;;;;8.88;5.57;;;8.60;99.90;;;;;;5084909;28;20024;-71
2021/05/27 00:02:36;;;;;;;10.75;6.50;;;8.60;99.90;;;;;;5079542;28;20032;-72
2021/05/27 00:05:08;;;;;;;10.30;6.80;;;8.60;99.90;;;;;;5057085;28;20178;-71
2021/05/27 00:07:34;;;;;;;13.43;8.27;;;8.60;99.90;;;;;;5073863;28;20465;-71
2021/05/27 00:10:03;;;;;;;11.15;8.32;;;8.60;99.90;;;;;;5075349;28;20035;-72
2021/05/27 00:12:28;;;;;;;12.60;7.63;;;8.60;99.90;;;;;;5076824;28;20476;-71
2021/05/27 00:14:54;;;;;;;12.23;8.07;;;8.70;99.90;;;;;;5072613;28;20040;-71
2021/05/27 00:17:20;;;;;;;12.50;7.72;;;8.70;99.90;;;;;;5069402;28;20016;-71
2021/05/27 00:19:48;;;;;;;10.85;7.80;;;8.70;99.90;;;;;;5065873;28;20036;-70
2021/05/27 00:22:13;;;;;;;11.50;7.78;;;8.70;99.90;;;;;;5069851;28;20123;-73
2021/05/27 00:24:41;;;;;;;10.00;7.45;;;8.70;99.90;;;;;;5064872;28;20033;-71
2021/05/27 00:27:07;;;;;;;14.85;7.32;;;8.80;99.90;;;;;;5063367;28;20040;-73
2021/05/27 00:29:33;;;;;;;11.93;7.32;;;8.80;99.90;;;;;;5074854;28;20041;-71
2021/05/27 00:31:59;;;;;;;11.50;7.68;;;8.90;99.90;;;;;;5058721;28;20024;-71
2021/05/27 00:34:26;;;;;;;11.50;7.10;;;8.80;99.90;;;;;;5078967;28;20060;-72
2021/05/27 00:36:56;;;;;;;10.63;7.07;;;8.90;99.90;;;;;;5077558;28;20501;-72
2021/05/27 00:39:25;;;;;;;11.13;6.72;;;8.80;99.90;;;;;;5070982;28;20056;-71
2021/05/27 00:41:50;;;;;;;13.15;6.93;;;8.90;99.90;;;;;;5057374;28;20044;-71
2021/05/27 00:44:25;;;;;;;11.85;7.57;;;8.90;99.90;;;;;;5060751;28;20028;-71
2021/05/27 00:46:51;;;;;;;12.38;7.50;;;8.90;99.90;;;;;;5076341;28;20032;-73
2021/05/27 00:49:19;;;;;;;11.07;7.38;;;8.90;99.90;;;;;;5079376;28;20155;-71
2021/05/27 00:51:45;;;;;;;10.43;6.97;;;8.90;99.90;;;;;;5077540;28;21895;-72
2021/05/27 00:54:11;;;;;;;10.75;7.72;;;8.90;99.90;;;;;;5067883;28;20032;-71
2021/05/27 00:56:40;;;;;;;11.05;7.22;;;8.80;99.90;;;;;;5080214;28;20103;-72
2021/05/27 00:59:05;;;;;;;11.02;8.00;;;8.80;99.90;;;;;;5078856;28;20055;-72
2021/05/27 01:01:34;;;;;;;9.10;6.30;;;8.80;99.90;;;;;;5073091;28;20441;-72
2021/05/27 01:04:00;;;;;;;9.63;6.97;;;8.90;99.90;;;;;;5077020;28;20117;-72
2021/05/27 01:06:27;;;;;;;9.57;6.85;;;8.90;99.90;;;;;;5074676;28;20056;-71
2021/05/27 01:08:54;;;;;;;9.55;6.75;;;8.90;99.90;;;;;;5061087;28;20496;-72
2021/05/27 01:11:20;;;;;;;9.70;6.57;;;8.90;99.90;;;;;;5069061;28;20040;-71
2021/05/27 01:13:46;;;;;;;12.57;6.93;;;8.90;99.90;;;;;;5069963;28;20515;-72
2021/05/27 01:16:18;;;;;;;13.30;7.30;;;8.90;99.90;;;;;;5071829;28;20033;-72
2021/05/27 01:18:43;;;;;;;;;;;8.90;99.90;;;;;;5079942;28;20094;-71
2021/05/27 01:21:09;;;;;;;10.60;6.45;;;8.90;99.90;;;;;;5074363;28;19938;-71
2021/05/27 01:23:37;;;;;;;9.95;6.57;;;8.80;99.90;;;;;;5070583;28;20039;-72
2021/05/27 01:26:04;;;;;;;12.40;6.50;;;8.90;99.90;;;;;;5068442;28;20060;-72
2021/05/27 01:28:35;;;;;;;9.35;6.25;;;8.90;99.90;;;;;;5071170;28;20107;-71
2021/05/27 01:31:02;;;;;;;11.20;6.50;;;8.90;99.90;;;;;;5073462;28;20040;-71
2021/05/27 01:33:34;;;;;;;11.18;6.65;;;8.90;99.90;;;;;;5077826;28;20365;-71
2021/05/27 01:36:00;;;;;;;10.90;6.05;;;8.90;99.90;;;;;;5063033;28;20476;-71
2021/05/27 01:38:34;;;;;;;9.48;5.60;;;8.90;99.90;;;;;;5079208;28;20114;-71
2021/05/27 01:41:01;;;;;;;9.48;5.45;;;9.00;99.90;;;;;;5072382;28;20025;-71
2021/05/27 01:43:27;;;;;;;9.07;5.70;;;9.00;99.90;;;;;;5057450;28;20031;-72
2021/05/27 01:45:52;;;;;;;10.30;5.40;;;9.00;99.90;;;;;;5068974;28;20036;-73
2021/05/27 01:48:20;;;;;;;10.40;5.25;;;9.10;99.90;;;;;;5070495;28;20056;-71
2021/05/27 01:50:47;;;;;;;10.52;4.90;;;9.10;99.90;;;;;;5070348;28;20059;-70
2021/05/27 01:53:13;;;;;;;8.10;4.88;;;9.20;99.90;;;;;;5079150;28;20040;-71
2021/05/27 01:55:45;;;;;;;8.95;5.32;;;9.20;99.90;;;;;;5077017;28;20020;-71
2021/05/27 01:58:11;;;;;;;12.15;5.30;;;9.10;99.90;;;;;;5070766;28;20058;-71
2021/05/27 02:00:39;;;;;;;9.60;4.60;;;9.20;99.90;;;;;;5068169;28;20385;-73
2021/05/27 02:03:07;;;;;;;9.43;5.10;;;9.20;99.90;;;;;;5070247;28;20117;-72
2021/05/27 02:05:33;;;;;;;9.80;5.53;;;9.20;99.90;;;;;;5066963;28;20115;-72
2021/05/27 02:07:59;;;;;;;7.55;5.10;;;9.30;99.90;;;;;;5068910;28;20753;-70
2021/05/27 02:10:26;;;;;;;10.32;4.70;;;9.30;99.90;;;;;;5070957;28;20031;-71
2021/05/27 02:12:52;;;;;;;9.00;4.90;;;9.30;99.90;;;;;;5079565;28;20048;-71
2021/05/27 02:15:18;;;;;;;9.40;4.57;;;9.30;99.90;;;;;;5079251;28;20050;-70
2021/05/27 02:17:43;;;;;;;12.20;4.80;;;9.30;99.90;;;;;;5079733;28;20068;-70
2021/05/27 02:20:12;;;;;;;9.25;4.82;;;9.40;99.90;;;;;;5077819;28;20020;-72
2021/05/27 02:22:37;;;;;;;6.57;4.25;;;9.40;99.90;;;;;;5076848;28;20045;-71
2021/05/27 02:25:04;;;;;;;8.60;5.03;;;9.40;99.90;;;;;;5067606;28;20573;-71
2021/05/27 02:27:30;;;;;;;7.20;4.13;;;9.50;99.90;;;;;;5069350;28;20233;-70
2021/05/27 02:29:58;;;;;;;8.00;4.22;;;9.50;99.90;;;;;;5051829;28;20032;-71
2021/05/27 02:32:23;;;;;;;7.55;4.00;;;9.50;99.90;;;;;;5068428;28;20032;-71
2021/05/27 02:34:51;;;;;;;6.85;4.40;;;9.40;99.90;;;;;;5069590;28;20043;-70
2021/05/27 02:37:17;;;;;;;11.90;5.07;;;9.50;99.90;;;;;;5068951;28;20124;-71
2021/05/27 02:39:45;;;;;;;9.30;4.65;;;9.50;99.90;;;;;;5075454;28;20297;-70
2021/05/27 02:42:11;;;;;;;7.60;4.30;;;9.60;99.90;;;;;;5074934;28;20162;-70
2021/05/27 02:44:38;;;;;;;7.43;4.30;;;9.60;99.90;;;;;;5070126;28;20076;-71
2021/05/27 02:47:06;;;;;;;7.72;3.83;;;9.50;99.90;;;;;;5076279;28;20058;-70
2021/05/27 02:49:32;;;;;;;7.00;3.70;;;9.60;99.90;;;;;;5078324;28;20036;-71
2021/05/27 02:51:58;;;;;;;6.22;3.88;;;9.60;99.90;;;;;;5088114;28;20039;-70
2021/05/27 02:54:26;;;;;;;6.95;4.20;;;9.60;99.90;;;;;;5076811;28;20025;-70
2021/05/27 02:56:59;;;;;;;7.75;3.75;;;9.60;99.90;;;;;;5071853;28;20118;-70
2021/05/27 02:59:24;;;;;;;6.22;3.60;;;9.60;99.90;;;;;;5068782;28;20714;-70
2021/05/27 03:01:50;;;;;;;7.07;3.90;;;9.60;99.90;;;;;;5067221;28;20036;-70
2021/05/27 03:04:19;;;;;;;7.72;3.67;;;9.60;99.90;;;;;;5067078;28;20033;-70
2021/05/27 03:06:45;;;;;;;7.78;4.05;;;9.60;99.90;;;;;;5067189;28;20036;-70
2021/05/27 03:09:10;;;;;;;7.15;3.83;;;9.70;99.90;;;;;;5073754;28;20081;-70
2021/05/27 03:11:38;;;;;;;7.13;3.70;;;9.70;99.90;;;;;;5075648;28;20024;-70
2021/05/27 03:14:06;;;;;;;6.18;3.70;;;9.60;99.90;;;;;;5078342;28;20115;-71
2021/05/27 03:16:32;;;;;;;6.95;3.58;;;9.60;99.90;;;;;;5078652;28;20119;-70
2021/05/27 03:18:58;;;;;;;8.45;4.30;;;9.70;99.90;;;;;;5078754;28;20099;-71
2021/05/27 03:21:23;;;;;;;8.98;4.20;;;9.60;99.90;;;;;;5075959;28;20148;-71
2021/05/27 03:23:51;;;;;;;7.68;4.00;;;9.60;99.90;;;;;;5077961;28;20097;-70
2021/05/27 03:26:17;;;;;;;8.98;3.97;;;9.60;99.90;;;;;;5071954;28;20036;-70
2021/05/27 03:28:45;;;;;;;8.30;3.83;;;9.50;99.90;;;;;;5077263;28;20501;-71
2021/05/27 03:31:11;;;;;;;6.95;3.95;;;9.60;99.90;;;;;;5085097;28;20028;-71
2021/05/27 03:33:39;;;;;;;6.40;3.80;;;9.60;99.90;;;;;;5078079;28;20039;-72
2021/05/27 03:36:07;;;;;;;6.32;4.10;;;9.60;99.90;;;;;;5078255;28;20032;-72
2021/05/27 03:38:33;;;;;;;9.10;4.40;;;9.60;99.90;;;;;;5072822;28;20719;-71
2021/05/27 03:40:58;;;;;;;7.60;4.50;;;9.60;99.90;;;;;;5065541;28;20024;-71
2021/05/27 03:43:26;;;;;;;12.00;4.45;;;9.60;99.90;;;;;;5067510;28;20036;-72
2021/05/27 03:45:54;;;;;;;6.88;4.10;;;9.60;99.90;;;;;;5068406;28;20063;-71
2021/05/27 03:48:22;;;;;;;7.78;4.53;;;9.60;99.90;;;;;;5071256;28;20031;-71
2021/05/27 03:50:47;;;;;;;7.18;4.88;;;9.60;99.90;;;;;;5077279;28;20034;-71
2021/05/27 03:53:15;;;;;;;7.10;4.78;;;9.60;99.90;;;;;;5071918;28;20036;-72
2021/05/27 03:55:41;;;;;;;6.97;4.60;;;9.60;99.90;;;;;;5069339;28;20328;-71
2021/05/27 04:00:42;;;;;;;7.00;4.90;;;9.50;99.90;;;;;;5068867;28;20039;-72
2021/05/27 04:00:52;;;;;;;8.57;5.20;;;9.60;99.90;;;;;;5078272;28;20872;-70
2021/05/27 04:03:21;;;;;;;7.75;5.13;;;9.50;99.90;;;;;;5072777;28;20028;-71
2021/05/27 04:08:34;;;;;;;9.93;5.10;;;9.50;99.90;;;;;;5077101;28;20518;-71
2021/05/27 04:11:00;;;;;;;7.57;5.43;;;9.50;99.90;;;;;;5063895;28;20024;-70
2021/05/27 04:13:30;;;;;;;7.85;5.80;;;9.40;99.90;;;;;;5086038;28;20036;-70
2021/05/27 04:15:55;;;;;;;8.07;5.45;;;9.40;99.90;;;;;;5072144;28;20821;-70
2021/05/27 04:18:25;;;;;;;8.88;5.45;;;9.40;99.90;;;;;;5073011;28;20065;-71
2021/05/27 04:20:56;;;;;;;8.73;5.47;;;9.30;99.90;;;;;;5073026;28;20047;-70
2021/05/27 04:23:38;;;;;;;11.15;5.55;;;9.30;99.90;;;;;;5071930;28;20519;-70
2021/05/27 04:26:08;;;;;;;10.23;6.15;;;9.40;99.90;;;;;;5075267;28;20043;-71
2021/05/27 04:28:34;;;;;;;9.07;6.20;;;9.40;99.90;;;;;;5082615;28;20028;-71
2021/05/27 04:31:09;;;;;;;9.13;5.95;;;9.40;99.90;;;;;;5075735;28;20550;-71
2021/05/27 04:33:54;;;;;;;10.73;6.32;;;9.30;99.90;;;;;;5069160;28;20025;-70
2021/05/27 04:36:19;;;;;;;9.07;6.05;;;9.40;99.90;;;;;;5080911;28;20116;-70
2021/05/27 04:38:46;;;;;;;8.82;5.90;;;9.30;99.90;;;;;;5077732;28;20100;-71
2021/05/27 04:41:12;;;;;;;10.95;6.35;;;9.30;99.90;;;;;;5079864;28;20051;-70
2021/05/27 04:43:40;;;;;;;8.25;5.90;;;9.30;99.90;;;;;;5072513;28;20056;-70
2021/05/27 04:46:08;;;;;;;8.95;5.68;;;9.30;99.90;;;;;;5081997;28;20043;-70
2021/05/27 04:48:37;;;;;;;10.82;5.93;;;9.20;99.90;;;;;;5080100;28;20040;-70
2021/05/27 04:51:07;;;;;;;10.13;5.82;;;9.30;99.90;;;;;;5080602;28;20027;-70
2021/05/27 04:53:32;;;;;;;9.18;5.55;;;9.30;99.90;;;;;;5072742;28;20036;-70
2021/05/27 04:55:58;;;;;;;9.80;5.55;;;9.30;99.90;;;;;;5071406;28;20031;-70
2021/05/27 04:58:24;;;;;;;8.73;5.70;;;9.30;99.90;;;;;;5071855;28;20032;-70
2021/05/27 05:00:50;;;;;;;10.90;6.38;;;9.30;99.90;;;;;;5068577;28;20067;-70
2021/05/27 05:03:16;;;;;;;9.25;5.93;;;9.30;99.90;;;;;;5068540;28;20024;-70
2021/05/27 05:05:44;;;;;;;10.35;6.40;;;9.30;99.90;;;;;;5070664;28;20043;-70
2021/05/27 05:08:14;;;;;;;8.90;5.70;;;9.30;99.90;;;;;;5053451;28;20032;-70
2021/05/27 05:10:43;;;;;;;11.00;6.10;;;9.30;99.90;;;;;;5060176;28;20086;-70
2021/05/27 05:13:16;;;;;;;10.07;6.68;;;9.30;99.90;;;;;;5070991;28;20078;-70
2021/05/27 05:15:42;;;;;;;9.52;6.15;;;9.40;99.90;;;;;;5071202;28;20034;-70
2021/05/27 05:18:11;;;;;;;9.27;5.95;;;9.40;99.90;;;;;;5074229;28;20457;-70
2021/05/27 05:20:38;;;;;;;10.00;6.50;;;9.40;99.90;;;;;;5080026;28;20054;-70
2021/05/27 05:23:05;;;;;;;9.75;6.20;;;9.40;99.90;;;;;;5078656;28;20048;-70
2021/05/27 05:25:34;;;;;;;9.02;5.68;;;9.40;99.90;;;;;;5080669;28;20498;-70
2021/05/27 05:28:00;;;;;;;10.65;6.00;;;9.40;99.90;;;;;;5078460;28;20463;-71
2021/05/27 05:30:29;;;;;;;9.93;5.32;;;9.50;99.90;;;;;;5068929;28;20029;-70
2021/05/27 05:32:57;;;;;;;10.02;5.93;;;9.50;99.90;;;;;;5078011;28;20353;-70
2021/05/27 05:35:22;;;;;;;12.07;6.30;;;9.50;99.90;;;;;;5073350;28;20033;-70
2021/05/27 05:37:48;;;;;;;10.10;5.88;;;9.50;99.90;;;;;;5070451;28;20024;-70
2021/05/27 05:40:17;;;;;;;8.00;5.25;;;9.60;99.90;;;;;;5071142;28;20715;-70
2021/05/27 05:42:45;;;;;;;9.77;5.38;;;9.60;99.90;;;;;;5070048;28;20020;-69
2021/05/27 05:45:18;;;;;;;9.65;5.75;;;9.70;99.90;;;;;;5068309;28;20094;-71
2021/05/27 05:47:44;;;;;;;10.85;6.70;;;9.60;99.90;;;;;;5070430;28;20082;-70
2021/05/27 05:50:10;;;;;;;9.50;6.03;;;9.70;99.90;;;;;;5071087;28;20032;-70
2021/05/27 05:52:38;;;;;;;9.57;6.07;;;9.60;99.90;;;;;;5076668;28;20044;-70
2021/05/27 05:55:05;;;;;;;8.95;5.93;;;9.70;99.90;;;;;;5078205;28;20111;-70
2021/05/27 05:57:30;;;;;;;10.10;6.40;;;9.70;99.90;;;;;;5068361;28;20094;-70
2021/05/27 05:59:56;;;;;;;9.32;5.93;;;9.70;99.90;;;;;;5069501;28;20706;-70
2021/05/27 06:02:24;;;;;;;9.13;5.72;;;9.70;99.90;;;;;;5070599;28;20040;-70
2021/05/27 06:04:50;;;;;;;11.52;6.05;;;9.80;99.90;;;;;;5071121;28;20031;-75
2021/05/27 06:07:19;;;;;;;8.85;5.97;;;9.90;99.90;;;;;;5079851;28;20032;-74
2021/05/27 06:09:47;;;;;;;12.18;6.32;;;9.90;99.90;;;;;;5081225;28;20035;-73
2021/05/27 06:12:13;;;;;;;10.20;6.03;;;9.90;99.90;;;;;;5062945;28;20024;-73
2021/05/27 06:14:41;;;;;;;12.15;6.30;;;10.00;99.90;;;;;;5066410;28;20072;-70
2021/05/27 06:17:09;;;;;;;9.57;5.72;;;10.10;99.90;;;;;;5080169;28;20115;-70
2021/05/27 06:19:37;;;;;;;8.50;5.70;;;10.10;99.90;;;;;;5078468;28;20032;-70
2021/05/27 06:22:06;;;;;;;9.15;5.65;;;10.20;99.90;;;;;;5080931;28;20036;-69
2021/05/27 06:24:34;;;;;;;8.27;5.20;;;10.20;99.90;;;;;;5081688;28;20063;-70
2021/05/27 06:27:02;;;;;;;9.45;6.43;;;10.30;99.90;;;;;;5082071;28;20035;-70
2021/05/27 06:29:30;;;;;;;10.15;6.63;;;10.30;99.90;;;;;;5082207;28;20063;-70
2021/05/27 06:31:58;;;;;;;8.55;5.90;;;10.30;99.90;;;;;;5076045;28;20056;-72
2021/05/27 06:34:23;;;;;;;18.83;10.23;;;10.30;99.90;;;;;;5080791;28;20024;-73
2021/05/27 06:36:49;;;;;;;16.13;9.18;;;10.40;99.90;;;;;;5080001;28;20611;-72
2021/05/27 06:39:14;;;;;;;10.50;6.95;;;10.60;99.90;;;;;;5080283;28;20141;-70
2021/05/27 06:41:40;;;;;;;7.75;6.00;;;10.60;99.90;;;;;;5077267;28;20024;-70
2021/05/27 06:44:06;;;;;;;8.48;5.85;;;10.60;99.90;;;;;;5078508;28;20057;-70
2021/05/27 06:46:33;;;;;;;9.13;5.82;;;10.60;99.90;;;;;;5080131;28;20043;-71
2021/05/27 06:48:59;;;;;;;10.27;5.50;;;10.60;99.90;;;;;;5081851;28;20040;-70
2021/05/27 06:51:27;;;;;;;11.02;6.28;;;10.60;99.90;;;;;;5078636;28;20032;-70
2021/05/27 06:53:52;;;;;;;9.68;6.22;;;10.70;99.90;;;;;;5081833;28;20114;-71
2021/05/27 06:56:18;;;;;;;10.35;6.45;;;10.70;99.90;;;;;;5081685;28;20479;-73
2021/05/27 06:58:44;;;;;;;8.48;6.18;;;10.50;99.90;;;;;;5077650;28;20025;-71
2021/05/27 07:01:09;;;;;;;10.57;6.05;;;10.50;99.90;;;;;;5078352;28;20024;-71
2021/05/27 07:03:37;;;;;;;7.45;5.90;;;10.40;99.90;;;;;;5080349;28;20056;-70
2021/05/27 07:06:05;;;;;;;10.00;5.95;;;10.50;99.90;;;;;;5067935;28;20028;-71
2021/05/27 07:08:39;;;;;;;9.75;6.93;;;10.40;99.90;;;;;;5079125;28;20043;-71
2021/05/27 07:11:04;;;;;;;8.27;6.20;;;10.20;99.90;;;;;;5079763;28;20032;-70
2021/05/27 07:13:30;;;;;;;10.27;6.00;;;10.20;99.90;;;;;;5076927;28;20580;-71
2021/05/27 07:15:58;;;;;;;11.35;6.22;;;10.20;99.90;;;;;;5081331;28;20032;-70
2021/05/27 07:18:26;;;;;;;9.57;6.30;;;10.20;99.90;;;;;;5079855;28;20027;-71
2021/05/27 07:20:51;;;;;;;11.02;5.75;;;10.30;99.90;;;;;;5080885;28;20034;-74
2021/05/27 07:23:18;;;;;;;13.60;8.55;;;10.30;99.90;;;;;;5078226;28;20139;-72
2021/05/27 07:25:44;;;;;;;12.15;7.28;;;10.40;99.90;;;;;;5079217;28;20020;-70
2021/05/27 07:28:10;;;;;;;9.75;6.22;;;10.40;99.90;;;;;;5078321;28;20099;-70
2021/05/27 07:30:38;;;;;;;9.07;5.82;;;10.50;99.90;;;;;;5077903;28;20165;-70
2021/05/27 07:33:04;;;;;;;9.15;5.97;;;10.50;99.90;;;;;;5080659;28;20053;-70
2021/05/27 07:35:30;;;;;;;9.82;6.22;;;10.60;99.90;;;;;;5077312;28;20046;-70
2021/05/27 07:37:56;;;;;;;10.75;6.53;;;10.60;99.90;;;;;;5082523;28;20469;-70
2021/05/27 07:40:22;;;;;;;8.50;5.90;;;10.70;99.90;;;;;;5077574;28;20531;-70
2021/05/27 07:42:48;;;;;;;9.77;6.55;;;10.70;99.90;;;;;;5081420;28;20027;-70
2021/05/27 07:45:13;;;;;;;8.25;6.25;;;10.70;99.90;;;;;;5080783;28;20085;-70
2021/05/27 07:47:39;;;;;;;9.90;6.00;;;10.80;99.90;;;;;;5083856;28;20146;-70
2021/05/27 07:50:06;;;;;;;10.63;6.00;;;10.80;99.90;;;;;;5083911;28;20036;-70
2021/05/27 07:52:35;;;;;;;9.75;6.68;;;10.90;99.90;;;;;;5081662;28;20036;-70
2021/05/27 07:55:01;;;;;;;7.30;5.40;;;11.00;99.90;;;;;;5084973;28;20405;-71
2021/05/27 07:57:29;;;;;;;10.05;6.00;;;11.00;99.90;;;;;;5082280;28;20391;-70
2021/05/27 07:59:55;;;;;;;9.60;6.40;;;11.10;99.90;;;;;;5085897;28;20028;-70
2021/05/27 08:02:21;;;;;;;10.93;5.97;;;11.10;99.90;;;;;;5080841;28;20354;-70
2021/05/27 08:04:47;;;;;;;8.60;5.75;;;11.20;99.90;;;;;;5084518;28;20031;-70
2021/05/27 08:07:12;;;;;;;7.55;5.47;;;11.20;99.90;;;;;;5083676;28;20020;-70
2021/05/27 08:09:40;;;;;;;7.65;5.78;;;11.20;99.90;;;;;;5082698;28;20032;-70
2021/05/27 08:12:06;;;;;;;8.52;5.20;;;11.20;99.90;;;;;;5082285;28;20028;-70
2021/05/27 08:14:32;;;;;;;8.45;5.50;;;11.20;99.90;;;;;;5080120;28;20485;-70
2021/05/27 08:17:00;;;;;;;9.70;5.30;;;11.30;99.90;;;;;;5079484;28;20124;-70
2021/05/27 08:19:26;;;;;;;8.07;6.10;;;11.40;99.90;;;;;;5081341;28;20026;-70
2021/05/27 08:21:54;;;;;;;9.07;5.38;;;11.40;99.90;;;;;;5082094;28;20099;-69
2021/05/27 08:24:19;;;;;;;9.80;5.68;;;11.50;99.90;;;;;;5081848;28;20047;-70
2021/05/27 08:26:45;;;;;;;8.90;5.20;;;11.50;99.90;;;;;;5067564;28;20028;-70
2021/05/27 08:29:11;;;;;;;7.60;5.00;;;11.50;99.90;;;;;;5081663;28;20024;-70
2021/05/27 08:31:40;;;;;;;7.63;4.70;;;11.60;99.90;;;;;;5080271;28;20039;-70
2021/05/27 08:34:07;;;;;;;10.38;4.50;;;11.70;99.90;;;;;;5080713;28;20032;-70
2021/05/27 08:36:33;;;;;;;8.93;5.18;;;11.70;99.90;;;;;;5064599;28;20028;-70
2021/05/27 08:38:58;;;;;;;8.40;5.07;;;11.80;99.90;;;;;;5078586;28;20027;-70
2021/05/27 08:41:24;;;;;;;9.23;5.68;;;11.80;99.90;;;;;;5080314;28;20035;-70
2021/05/27 08:43:50;;;;;;;10.32;5.78;;;11.70;99.90;;;;;;5085293;28;20024;-70
2021/05/27 08:46:15;;;;;;;8.10;5.35;;;11.80;99.90;;;;;;5063678;28;20354;-70
2021/05/27 08:48:42;;;;;;;9.45;5.80;;;11.90;99.90;;;;;;5061947;28;20252;-70
2021/05/27 08:51:08;;;;;;;11.10;5.55;;;11.90;99.90;;;;;;5082848;28;20123;-72
2021/05/27 08:53:34;;;;;;;9.88;5.93;;;11.90;99.90;;;;;;5081242;28;20037;-70
2021/05/27 08:56:02;;;;;;;9.18;5.80;;;11.90;99.90;;;;;;5081766;28;20043;-70
2021/05/27 08:58:30;;;;;;;10.18;5.25;;;12.00;99.90;;;;;;5082029;28;20070;-71
2021/05/27 09:00:56;;;;;;;10.25;6.00;;;12.00;99.90;;;;;;5080933;28;20525;-70
2021/05/27 09:03:23;;;;;;;9.63;5.63;;;12.10;99.90;;;;;;5065038;28;20115;-70
2021/05/27 09:06:03;;;;;;;11.40;5.50;;;12.20;99.90;;;;;;5079264;28;20025;-70
2021/05/27 09:08:30;;;;;;;8.48;5.43;;;12.30;99.90;;;;;;5079229;28;20021;-70
2021/05/27 09:11:15;;;;;;;9.35;5.15;;;12.50;99.90;;;;;;5076166;28;20039;-70
2021/05/27 09:13:56;;;;;;;9.48;5.75;;;12.60;99.90;;;;;;5082093;28;20025;-70
2021/05/27 09:16:21;;;;;;;9.10;5.20;;;12.70;99.90;;;;;;5076040;28;20023;-71
2021/05/27 09:18:49;;;;;;;9.23;5.55;;;12.70;99.90;;;;;;5077656;28;20032;-71
2021/05/27 09:21:19;;;;;;;8.38;5.57;;;12.70;99.90;;;;;;5080973;28;20059;-70
2021/05/27 09:23:51;;;;;;;8.75;5.00;;;12.80;99.90;;;;;;5081727;28;20483;-70
2021/05/27 09:26:17;;;;;;;8.18;4.90;;;12.90;99.90;;;;;;5079381;28;20123;-70
2021/05/27 09:28:47;;;;;;;7.05;4.82;;;12.80;99.90;;;;;;5079945;28;20154;-70
2021/05/27 09:31:14;;;;;;;7.03;4.70;;;12.90;99.90;;;;;;5079930;28;20024;-71
2021/05/27 09:33:42;;;;;;;8.80;5.55;;;12.80;99.90;;;;;;5077190;28;20036;-70
2021/05/27 09:36:20;;;;;;;9.25;5.05;;;12.90;99.90;;;;;;5079031;28;20039;-70
2021/05/27 09:38:53;;;;;;;5.95;4.07;;;13.00;99.90;;;;;;5076311;28;20067;-70
2021/05/27 09:41:23;;;;;;;7.07;4.20;;;13.00;99.90;;;;;;5077402;28;20028;-70
2021/05/27 09:44:02;;;;;;;7.43;4.50;;;13.20;99.90;;;;;;5079824;28;20031;-70
2021/05/27 09:46:28;;;;;;;7.03;3.92;;;13.20;99.90;;;;;;5078351;28;20115;-70
2021/05/27 09:49:08;;;;;;;8.23;4.60;;;13.10;99.90;;;;;;5079526;28;20077;-70
2021/05/27 09:51:33;;;;;;;8.20;4.10;;;13.20;99.90;;;;;;5078380;28;20024;-70
2021/05/27 09:54:00;;;;;;;7.53;4.65;;;13.20;99.90;;;;;;5077521;28;20369;-70
2021/05/27 09:56:38;;;;;;;6.38;3.63;;;13.20;99.90;;;;;;5082284;28;20016;-70
2021/05/27 09:59:06;;;;;;;6.88;4.38;;;13.20;99.90;;;;;;5087604;28;20016;-70
2021/05/27 10:01:31;;;;;;;5.88;3.72;;;13.10;99.90;;;;;;5076859;28;20039;-70
2021/05/27 10:04:10;;;;;;;7.95;4.80;;;13.00;99.90;;;;;;5080220;28;20038;-71
2021/05/27 10:06:40;;;;;;;6.43;4.38;;;13.10;99.90;;;;;;5079751;28;20028;-70
2021/05/27 10:09:09;;;;;;;7.50;4.25;;;13.00;99.90;;;;;;5077932;28;20101;-70
2021/05/27 10:11:35;;;;;;;6.18;3.90;;;12.90;99.90;;;;;;5079062;28;20028;-70
2021/05/27 10:14:01;;;;;;;5.60;4.07;;;12.80;99.90;;;;;;5081710;28;20108;-70
2021/05/27 10:16:29;;;;;;;6.70;4.30;;;12.90;99.90;;;;;;5080499;28;20602;-70
2021/05/27 10:18:57;;;;;;;6.15;3.90;;;12.90;99.90;;;;;;5079001;28;20020;-70
2021/05/27 10:21:23;;;;;;;6.72;4.00;;;13.00;99.90;;;;;;5080203;28;20483;-71
2021/05/27 10:23:52;;;;;;;7.15;3.90;;;13.00;99.90;;;;;;5078452;28;20521;-70
2021/05/27 10:26:20;;;;;;;6.35;3.83;;;12.90;99.90;;;;;;5077184;28;20090;-70
2021/05/27 10:28:50;;;;;;;6.65;3.70;;;12.90;99.90;;;;;;5077047;28;20058;-70
2021/05/27 10:31:17;;;;;;;5.47;3.60;;;12.90;99.90;;;;;;5067493;28;20029;-73
2021/05/27 10:33:43;;;;;;;6.22;3.97;;;12.90;99.90;;;;;;5074349;28;20021;-70
2021/05/27 10:36:09;;;;;;;6.63;3.90;;;12.90;99.90;;;;;;5076755;28;20025;-70
2021/05/27 10:38:41;;;;;;;5.70;3.38;;;12.90;99.90;;;;;;5077845;28;20019;-70
2021/05/27 10:41:09;;;;;;;6.28;3.53;;;13.00;99.90;;;;;;5093351;28;20023;-71
2021/05/27 10:43:34;;;;;;;5.85;3.38;;;13.00;99.90;;;;;;5075134;28;20083;-70
2021/05/27 10:46:07;;;;;;;5.88;3.03;;;13.10;99.90;;;;;;5075732;28;21913;-71
2021/05/27 10:48:50;;;;;;;5.55;3.00;;;13.00;99.90;;;;;;5077954;28;20040;-70
2021/05/27 10:51:44;;;;;;;;;;;13.10;99.90;;;;;;5078994;28;20028;-71
2021/05/27 10:54:16;;;;;;;5.72;3.60;;;13.00;99.90;;;;;;5078243;28;19913;-71
2021/05/27 10:56:44;;;;;;;6.13;3.70;;;12.90;99.90;;;;;;5078692;28;20043;-71
2021/05/27 10:59:15;;;;;;;6.55;3.60;;;13.00;99.90;;;;;;4716456;28;10000231;-71
2021/05/27 11:01:43;;;;;;;5.47;3.70;;;12.90;99.90;;;;;;5076199;28;20085;-72
2021/05/27 11:04:34;;;;;;;7.15;4.53;;;12.90;99.90;;;;;;5075146;28;20047;-72
2021/05/27 11:07:13;;;;;;;6.03;4.10;;;12.90;99.90;;;;;;5072155;28;20028;-72
2021/05/27 11:09:45;;;;;;;5.88;3.97;;;12.90;99.90;;;;;;5072552;28;20023;-72
2021/05/27 11:12:15;;;;;;;;;;;12.70;99.90;;;;;;5076335;28;20047;-74
2021/05/27 11:14:44;;;;;;;6.30;4.07;;;12.60;99.90;;;;;;5070512;28;19946;-71
2021/05/27 11:17:18;;;;;;;8.25;4.13;;;12.50;99.90;;;;;;5072549;28;20067;-72
2021/05/27 11:25:11;;;;;;;6.05;4.20;;;12.50;99.90;;;;;;4724734;28;10000289;-71
2021/05/27 11:27:49;;;;;;;6.38;4.00;;;12.60;99.90;;;;;;5078906;28;20023;-70
2021/05/27 11:30:18;;;;;;;6.75;3.97;;;12.60;99.90;;;;;;5073808;28;20458;-71
2021/05/27 11:32:50;;;;;;;5.95;3.45;;;12.70;99.90;;;;;;5074448;28;20035;-71
2021/05/27 11:35:22;;;;;;;4.80;3.10;;;12.60;99.90;;;;;;5073710;28;20024;-71
2021/05/27 11:37:49;;;;;;;5.13;3.13;;;12.50;99.90;;;;;;5073965;28;20040;-71
2021/05/27 11:40:16;;;;;;;4.90;3.05;;;12.60;99.90;;;;;;5073316;28;20029;-74
2021/05/27 11:42:47;;;;;;;4.93;2.92;;;12.50;99.90;;;;;;5073314;28;20405;-72
2021/05/27 11:45:13;;;;;;;4.50;2.17;;;12.40;99.90;;;;;;5073625;28;20108;-71
2021/05/27 11:47:39;;;;;;;5.07;3.10;;;12.30;99.90;;;;;;5081512;28;20446;-71
2021/05/27 11:50:09;;;;;;;5.25;3.10;;;12.30;99.90;;;;;;5077011;28;20036;-70
2021/05/27 11:52:35;;;;;;;5.13;3.20;;;12.30;99.90;;;;;;5071881;28;20733;-71
2021/05/27 11:55:01;;;;;;;5.68;3.20;;;12.30;99.90;;;;;;5074797;28;20038;-71
2021/05/27 11:57:45;;;;;;;6.18;3.42;;;12.30;99.90;;;;;;5078269;28;20024;-72
2021/05/27 12:00:15;;;;;;;5.80;4.20;;;12.30;99.90;;;;;;5075376;28;20060;-73
2021/05/27 12:02:51;;;;;;;6.55;3.95;;;12.30;99.90;;;;;;5077000;28;20059;-72
2021/05/27 12:05:37;;;;;;;5.82;3.92;;;12.30;99.90;;;;;;5081486;28;20097;-73
2021/05/27 12:08:10;;;;;;;6.22;4.25;;;12.30;99.90;;;;;;5076847;28;20041;-71
2021/05/27 12:10:46;;;;;;;4.72;2.70;;;12.40;99.90;;;;;;5076306;28;20097;-73
2021/05/27 12:13:22;;;;;;;7.40;3.22;;;12.30;99.90;;;;;;5073349;28;20056;-73
2021/05/27 12:15:48;;;;;;;6.32;3.42;;;12.40;99.90;;;;;;5078192;28;20085;-72
2021/05/27 12:18:15;;;;;;;6.10;3.05;;;12.40;99.90;;;;;;5068882;28;20377;-72
2021/05/27 12:20:45;;;;;;;4.50;3.15;;;12.50;99.90;;;;;;5076324;28;20016;-72
2021/05/27 12:23:13;;;;;;;5.15;2.88;;;12.60;99.90;;;;;;5075406;28;20040;-74
2021/05/27 12:25:42;;;;;;;4.20;2.60;;;12.60;99.90;;;;;;5077041;28;20081;-74
2021/05/27 12:28:15;;;;;;;3.90;2.58;;;12.60;99.90;;;;;;5063337;28;20024;-71
2021/05/27 12:30:53;;;;;;;4.82;2.58;;;12.60;99.90;;;;;;5077253;28;20362;-72
2021/05/27 12:33:23;;;;;;;4.07;2.60;;;12.50;99.90;;;;;;5079265;28;20354;-73
2021/05/27 12:35:52;;;;;;;3.60;2.38;;;12.50;99.90;;;;;;5081886;28;20110;-71
2021/05/27 12:38:19;;;;;;;5.18;2.92;;;12.40;99.90;;;;;;5078746;28;20033;-73
2021/05/27 12:40:53;;;;;;;5.07;2.83;;;12.40;99.90;;;;;;5077023;28;20028;-72
2021/05/27 12:43:25;;;;;;;4.10;2.42;;;12.50;99.90;;;;;;5077818;28;20032;-71
2021/05/27 12:45:52;;;;;;;4.38;2.90;;;12.40;99.90;;;;;;5076494;28;20017;-71
2021/05/27 12:48:28;;;;;;;5.30;3.42;;;12.30;99.90;;;;;;5080497;28;20028;-71
2021/05/27 12:51:00;;;;;;;4.45;2.70;;;12.30;99.90;;;;;;5078876;28;20028;-70
2021/05/27 12:53:29;;;;;;;;;;;12.30;99.90;;;;;;5081316;28;20023;-71
2021/05/27 12:55:56;;;;;;;5.13;3.30;;;12.20;99.90;;;;;;5080721;28;19908;-71
2021/05/27 12:58:36;;;;;;;5.45;3.90;;;12.20;99.90;;;;;;5079283;28;20020;-74
2021/05/27 13:01:04;;;;;;;6.22;3.78;;;12.30;99.90;;;;;;5080333;28;20432;-71
2021/05/27 13:03:30;;;;;;;5.50;3.30;;;12.30;99.90;;;;;;5079900;28;20194;-72